Aeroporto :
LOGIN :

Iscrizione | Disclaimer

   EN    FR    IT 

 










Sommario :    VFR   VFR Marginale   IFR   IFR Intensivo   IFR Molto Intensivo
Visibilità : 
Base nubi : 
>= 8 km
>= 3000ft
5 / 8 km
1000 / 3000 ft
1500m / 5 km
500 / 1000 ft
800 / 1500m
200 / 500 ft
< 800m
< 200 ft
Simboli :   Temporali  Nebbia  Neve Forte  Precipitazioni Forti  Vento > 20 kt
SIGMETs :   Varie  Temporali  Ghiacco  Turbolenza  Onda orograficha  Ceneri Vulcaniche






- Altitudine del aeroporto : 20 ft
- Codice IATA : LSI


EGPB - Sumburgh

ULTIMO METAR :
  • 210150Z AUTO 25028KT 9999 BKN024/// 06/03 Q0992

METARs OBSOLETI :
  • 210120Z AUTO 25027KT 9999 BKN028/// 07/02 Q0992
  • 210050Z AUTO 26029G40KT 8000 -RA SCT024/// 06/02 Q0992
  • 210020Z AUTO 26030KT 9999 FEW020/// SCT037/// 06/01 Q0991 RERA
  • 202350Z AUTO 26030KT 9999 FEW018/// SCT034/// 06/01 Q0991 RERA

TAF TAF EGPB
Valido dal 21 a 00 ore il 21 a 09 ore UTC


202301Z 2100/2109 26028KT 9999 FEW016 SCT030
TEMPO 2100/2103 25035G48KT 3000 SHRA SHGS BKN012CB
BECMG 2103/2106 21032G42KT
TEMPO 2103/2109 6000 RA SHRA BKN012
PROB40
TEMPO 2103/2107 3000 RADZ BKN007
TEMPO 2105/2109 20038G55KT



MetMap, La meteo Aeronautica in un colpo d'occhio ! - Copyright ORBIFLY Dicembre 2007 - Disclaimer

ORBIFLY MET'MAP TEAM :

Programmazione e sviluppo : Alexandra Zaïnal
Concezione : Baudouin d'Aumeries
Aiuto per la programmazione : Marc-Olivier Méhu
Supporto tecnico e logistico : Manuel Goepfert
Aiuto per la traduzione : Arnaldo La Scala

Contatto : metmap@orbifly.com




FONTI E CREDITI :

   NOAA